Ancram, NY

10:17 PM EDT on August 30, 2014 (GMT -0400)
Copake Country Club | Change Station
CLOSE
Current Station
Personal Weather Station
Location: Craryville, NY
Elevation: 774 ft
Nearby Weather Stations

Elev 774 ft 42.15 °N, 73.60 °W | Updated 5 minutes ago

Overcast
Overcast
68.7 °F
Feels Like 68.7 °F
N
3.0
Wind Variable Wind from SE
Gusts 7.0 mph

Today
High -- | Low -- °F
--% Chance of Precip.
Yesterday
High -- | Low -- °F
Precip. -- in
6:18 AM 7:31 PM
Waxing Crescent, 26% visible
Pressure 30.09 in
Visibility 10.0 miles
Clouds Mostly Cloudy 2700 ft
Dew Point 64 °F
Humidity 86%
Rainfall 0.00 in
Snow Depth Not available.
UV 0 out of 12
Pollen 9.00 out of 12
Ozone Good
PM2.5 Good
Flu Activity Not available.
METAR KPSF 310154Z AUTO 20004KT 10SM BKN027 18/15 A3014 RMK AO2 SLP189 T01780150

More Conditions Fewer Conditions

Pressure 30.09 in
Visibility 10.0 miles
Clouds Mostly Cloudy 2700 ft
Dew Point 64 °F
Humidity 86%
Rainfall 0.00 in
Snow Depth Not available.
UV 0 out of 12
Pollen 9.00 out of 12
Ozone Good
PM2.5 Good
Flu Activity Not available.
METAR KPSF 310154Z AUTO 20004KT 10SM BKN027 18/15 A3014 RMK AO2 SLP189 T01780150

More Conditions Fewer Conditions

10-Day Weather Forecast

Almanac

Astronomy

Aug. 30, 2014 Rise Set
Actual Time 6:18 AM EDT 7:31 PM EDT
Civil Twilight 5:49 AM EDT 8:00 PM EDT
Nautical Twilight 5:14 AM EDT 8:35 PM EDT
Astronomical Twilight 4:37 AM EDT 9:11 PM EDT
Moon 11:08 AM EDT (8/30) 9:58 PM EDT (8/30)
Length of Visible Light 14h 11m
Length of Day
13h 13m
Tomorrow will be 2m 42s shorter.
Waxing Crescent, 26% of the Moon is Illuminated
Today
Waxing Crescent
Sep 2
First Quarter
Sep 8
Full
Sep 15
Last Quarter
Sep 24
New

Today's Extremes

State Highs State Lows

Community

WunderPhotos

Upload Photos

1,748,736 photos uploaded!

Nearby

Air Quality

  Air Quality AQ Index Pollutant
Yesterday Good
OZONE
Yesterday Good
PM2.5
Current Good
OZONE
Current Good
PM2.5
Saturday Good
OZONE
Saturday Good
PM2.5
Sunday Good
PM2.5
Sunday Good
OZONE
Monday Moderate
OZONE
Monday Good
PM2.5
Tuesday Moderate
PM2.5
Tuesday Good
OZONE

Snow Depth

Station Depth Elevation
No new snow has been reported.

Earthquake Activity

City Distance Mag. Time & Date
No recent earthquake activity has been reported nearby.
Minimum magnitude displayed is 2.5.

Coastal Water Temperatures

Place Temperature
No Stations Reporting

Nearby Weather Stations